sensor_id;sensor_type;location;lat;lon;timestamp;pressure;altitude;pressure_sealevel;temperature;humidity
61345;BME280;47216;42.656;23.232;2023-02-04T00:02:20;93609.56;;;3.10;63.64
61345;BME280;47216;42.656;23.232;2023-02-04T00:04:48;93602.19;;;3.13;64.37
61345;BME280;47216;42.656;23.232;2023-02-04T00:07:15;93608.22;;;3.01;64.43
61345;BME280;47216;42.656;23.232;2023-02-04T00:09:42;93612.31;;;3.08;62.47
61345;BME280;47216;42.656;23.232;2023-02-04T00:12:10;93605.53;;;3.14;61.62
61345;BME280;47216;42.656;23.232;2023-02-04T00:14:37;93609.94;;;3.07;61.59
61345;BME280;47216;42.656;23.232;2023-02-04T00:17:04;93609.88;;;3.20;62.34
61345;BME280;47216;42.656;23.232;2023-02-04T00:19:32;93607.69;;;3.24;61.07
61345;BME280;47216;42.656;23.232;2023-02-04T00:22:00;93597.91;;;3.32;60.07
61345;BME280;47216;42.656;23.232;2023-02-04T00:24:28;93593.16;;;3.29;60.01
61345;BME280;47216;42.656;23.232;2023-02-04T00:26:54;93584.28;;;3.25;60.41
61345;BME280;47216;42.656;23.232;2023-02-04T00:29:21;93588.81;;;3.30;60.74
61345;BME280;47216;42.656;23.232;2023-02-04T00:31:48;93569.03;;;3.24;60.31
61345;BME280;47216;42.656;23.232;2023-02-04T00:34:14;93582.47;;;3.26;61.30
61345;BME280;47216;42.656;23.232;2023-02-04T00:36:42;93579.13;;;3.25;60.90
61345;BME280;47216;42.656;23.232;2023-02-04T00:39:10;93577.59;;;3.18;62.01
61345;BME280;47216;42.656;23.232;2023-02-04T00:41:37;93552.13;;;3.03;61.88
61345;BME280;47216;42.656;23.232;2023-02-04T00:44:04;93577.03;;;3.09;61.76
61345;BME280;47216;42.656;23.232;2023-02-04T00:46:31;93569.38;;;2.95;62.99
61345;BME280;47216;42.656;23.232;2023-02-04T00:48:57;93574.22;;;2.85;62.89
61345;BME280;47216;42.656;23.232;2023-02-04T00:51:24;93528.44;;;2.87;63.14
61345;BME280;47216;42.656;23.232;2023-02-04T00:53:51;93563.91;;;2.85;64.24
61345;BME280;47216;42.656;23.232;2023-02-04T00:56:19;93540.78;;;2.79;64.67
61345;BME280;47216;42.656;23.232;2023-02-04T00:58:45;93542.41;;;2.73;64.66
61345;BME280;47216;42.656;23.232;2023-02-04T01:01:12;93550.94;;;2.67;64.60
61345;BME280;47216;42.656;23.232;2023-02-04T01:03:39;93545.97;;;2.72;64.24
61345;BME280;47216;42.656;23.232;2023-02-04T01:06:05;93550.00;;;2.61;64.90
61345;BME280;47216;42.656;23.232;2023-02-04T01:08:32;93531.53;;;2.71;64.97
61345;BME280;47216;42.656;23.232;2023-02-04T01:10:59;93540.88;;;2.59;64.53
61345;BME280;47216;42.656;23.232;2023-02-04T01:13:27;93544.91;;;2.41;64.79
61345;BME280;47216;42.656;23.232;2023-02-04T01:15:53;93509.94;;;2.34;64.96
61345;BME280;47216;42.656;23.232;2023-02-04T01:18:20;93509.72;;;2.35;65.13
61345;BME280;47216;42.656;23.232;2023-02-04T01:20:47;93520.56;;;2.44;65.20
61345;BME280;47216;42.656;23.232;2023-02-04T01:23:13;93531.03;;;2.49;63.92
61345;BME280;47216;42.656;23.232;2023-02-04T01:25:40;93527.47;;;2.50;64.47
61345;BME280;47216;42.656;23.232;2023-02-04T01:28:07;93514.81;;;2.48;64.98
61345;BME280;47216;42.656;23.232;2023-02-04T01:30:35;93503.69;;;2.55;63.99
61345;BME280;47216;42.656;23.232;2023-02-04T01:33:02;93510.41;;;2.56;64.26
61345;BME280;47216;42.656;23.232;2023-02-04T01:35:28;93529.75;;;2.65;64.28
61345;BME280;47216;42.656;23.232;2023-02-04T01:37:55;93512.94;;;2.62;63.74
61345;BME280;47216;42.656;23.232;2023-02-04T01:40:22;93494.47;;;2.72;63.94
61345;BME280;47216;42.656;23.232;2023-02-04T01:42:49;93494.09;;;2.75;63.90
61345;BME280;47216;42.656;23.232;2023-02-04T01:45:15;93478.78;;;2.80;63.70
61345;BME280;47216;42.656;23.232;2023-02-04T01:47:44;93479.56;;;2.81;63.73
61345;BME280;47216;42.656;23.232;2023-02-04T01:50:12;93484.69;;;2.87;63.60
61345;BME280;47216;42.656;23.232;2023-02-04T01:52:38;93488.59;;;2.97;63.10
61345;BME280;47216;42.656;23.232;2023-02-04T01:55:09;93486.59;;;2.99;62.55
61345;BME280;47216;42.656;23.232;2023-02-04T01:57:38;93505.88;;;2.89;62.80
61345;BME280;47216;42.656;23.232;2023-02-04T02:00:05;93480.91;;;2.90;63.18
61345;BME280;47216;42.656;23.232;2023-02-04T02:02:39;93429.25;;;2.85;63.53
61345;BME280;47216;42.656;23.232;2023-02-04T02:05:08;93472.53;;;2.94;62.83
61345;BME280;47216;42.656;23.232;2023-02-04T02:07:35;93478.53;;;2.88;63.74
61345;BME280;47216;42.656;23.232;2023-02-04T02:10:02;93475.38;;;2.86;64.16
61345;BME280;47216;42.656;23.232;2023-02-04T02:12:29;93396.84;;;2.95;63.85
61345;BME280;47216;42.656;23.232;2023-02-04T02:14:58;93467.41;;;2.94;63.05
61345;BME280;47216;42.656;23.232;2023-02-04T02:17:25;93445.22;;;2.93;63.71
61345;BME280;47216;42.656;23.232;2023-02-04T02:19:52;93452.41;;;2.85;64.06
61345;BME280;47216;42.656;23.232;2023-02-04T02:22:22;93431.78;;;2.91;63.04
61345;BME280;47216;42.656;23.232;2023-02-04T02:24:52;93426.72;;;3.03;62.90
61345;BME280;47216;42.656;23.232;2023-02-04T02:27:19;93443.34;;;3.07;63.18
61345;BME280;47216;42.656;23.232;2023-02-04T02:29:46;93451.13;;;3.01;62.90
61345;BME280;47216;42.656;23.232;2023-02-04T02:32:13;93411.31;;;2.97;63.27
61345;BME280;47216;42.656;23.232;2023-02-04T02:34:40;93401.31;;;2.82;64.26
61345;BME280;47216;42.656;23.232;2023-02-04T02:37:08;93418.94;;;2.85;64.57
61345;BME280;47216;42.656;23.232;2023-02-04T02:39:35;93380.38;;;2.78;64.32
61345;BME280;47216;42.656;23.232;2023-02-04T02:42:03;93403.28;;;2.86;64.15
61345;BME280;47216;42.656;23.232;2023-02-04T02:44:30;93377.72;;;2.91;64.44
61345;BME280;47216;42.656;23.232;2023-02-04T02:46:57;93394.09;;;2.97;64.43
61345;BME280;47216;42.656;23.232;2023-02-04T02:49:24;93397.97;;;3.06;62.96
61345;BME280;47216;42.656;23.232;2023-02-04T02:51:52;93381.63;;;3.19;62.73
61345;BME280;47216;42.656;23.232;2023-02-04T02:54:21;93387.69;;;3.25;62.77
61345;BME280;47216;42.656;23.232;2023-02-04T02:56:48;93394.50;;;3.19;62.77
61345;BME280;47216;42.656;23.232;2023-02-04T02:59:16;93384.88;;;3.08;63.47
61345;BME280;47216;42.656;23.232;2023-02-04T03:01:43;93403.56;;;3.03;64.03
61345;BME280;47216;42.656;23.232;2023-02-04T03:04:12;93392.34;;;2.91;64.65
61345;BME280;47216;42.656;23.232;2023-02-04T03:06:39;93386.63;;;2.89;64.24
61345;BME280;47216;42.656;23.232;2023-02-04T03:09:05;93375.53;;;2.88;63.69
61345;BME280;47216;42.656;23.232;2023-02-04T03:11:32;93388.63;;;2.87;64.38
61345;BME280;47216;42.656;23.232;2023-02-04T03:13:59;93399.56;;;2.82;64.71
61345;BME280;47216;42.656;23.232;2023-02-04T03:16:28;93407.28;;;2.82;64.07
61345;BME280;47216;42.656;23.232;2023-02-04T03:18:57;93386.91;;;2.81;64.48
61345;BME280;47216;42.656;23.232;2023-02-04T03:21:24;93400.16;;;2.84;64.08
61345;BME280;47216;42.656;23.232;2023-02-04T03:23:51;93412.00;;;2.85;64.81
61345;BME280;47216;42.656;23.232;2023-02-04T03:26:20;93403.06;;;2.88;64.63
61345;BME280;47216;42.656;23.232;2023-02-04T03:28:47;93404.03;;;2.93;64.50
61345;BME280;47216;42.656;23.232;2023-02-04T03:31:14;93402.88;;;2.89;64.58
61345;BME280;47216;42.656;23.232;2023-02-04T03:33:42;93399.03;;;2.99;63.74
61345;BME280;47216;42.656;23.232;2023-02-04T03:36:09;93447.97;;;2.99;63.55
61345;BME280;47216;42.656;23.232;2023-02-04T03:38:36;93403.03;;;2.94;63.90
61345;BME280;47216;42.656;23.232;2023-02-04T03:41:02;93407.75;;;2.98;63.56
61345;BME280;47216;42.656;23.232;2023-02-04T03:43:29;93386.56;;;2.95;64.10
61345;BME280;47216;42.656;23.232;2023-02-04T03:45:56;93383.34;;;3.00;64.04
61345;BME280;47216;42.656;23.232;2023-02-04T03:48:22;93381.59;;;3.01;63.38
61345;BME280;47216;42.656;23.232;2023-02-04T03:50:50;93390.09;;;3.01;63.33
61345;BME280;47216;42.656;23.232;2023-02-04T03:53:17;93377.41;;;3.00;63.66
61345;BME280;47216;42.656;23.232;2023-02-04T03:55:44;93370.72;;;2.99;63.77
61345;BME280;47216;42.656;23.232;2023-02-04T03:58:10;93356.53;;;2.89;63.88
61345;BME280;47216;42.656;23.232;2023-02-04T04:00:37;93352.16;;;2.90;63.98
61345;BME280;47216;42.656;23.232;2023-02-04T04:03:04;93349.53;;;2.97;64.73
61345;BME280;47216;42.656;23.232;2023-02-04T04:05:31;93367.59;;;2.90;64.11
61345;BME280;47216;42.656;23.232;2023-02-04T04:07:59;93359.34;;;2.81;64.75
61345;BME280;47216;42.656;23.232;2023-02-04T04:10:26;93329.75;;;2.90;65.61
61345;BME280;47216;42.656;23.232;2023-02-04T04:12:53;93333.56;;;2.88;66.30
61345;BME280;47216;42.656;23.232;2023-02-04T04:15:20;93326.53;;;2.77;67.10
61345;BME280;47216;42.656;23.232;2023-02-04T04:17:46;93336.53;;;2.66;69.17
61345;BME280;47216;42.656;23.232;2023-02-04T04:20:13;93307.69;;;2.58;70.57
61345;BME280;47216;42.656;23.232;2023-02-04T04:22:40;93317.59;;;2.54;71.16
61345;BME280;47216;42.656;23.232;2023-02-04T04:25:08;93325.56;;;2.52;70.28
61345;BME280;47216;42.656;23.232;2023-02-04T04:27:35;93328.47;;;2.56;70.60
61345;BME280;47216;42.656;23.232;2023-02-04T04:30:02;93332.59;;;2.64;70.30
61345;BME280;47216;42.656;23.232;2023-02-04T04:32:28;93326.19;;;2.73;69.27
61345;BME280;47216;42.656;23.232;2023-02-04T04:34:55;93357.34;;;2.83;69.29
61345;BME280;47216;42.656;23.232;2023-02-04T04:37:22;93356.19;;;2.79;68.40
61345;BME280;47216;42.656;23.232;2023-02-04T04:39:49;93362.84;;;2.68;68.88
61345;BME280;47216;42.656;23.232;2023-02-04T04:42:17;93367.25;;;2.61;69.93
61345;BME280;47216;42.656;23.232;2023-02-04T04:44:43;93367.06;;;2.56;70.40
61345;BME280;47216;42.656;23.232;2023-02-04T04:47:10;93369.31;;;2.52;70.24
61345;BME280;47216;42.656;23.232;2023-02-04T04:49:37;93379.00;;;2.50;71.29
61345;BME280;47216;42.656;23.232;2023-02-04T04:52:04;93389.31;;;2.50;70.44
61345;BME280;47216;42.656;23.232;2023-02-04T04:54:30;93373.88;;;2.50;70.55
61345;BME280;47216;42.656;23.232;2023-02-04T04:56:57;93385.72;;;2.51;70.67
61345;BME280;47216;42.656;23.232;2023-02-04T04:59:25;93389.72;;;2.47;70.65
61345;BME280;47216;42.656;23.232;2023-02-04T05:01:52;93375.13;;;2.41;71.60
61345;BME280;47216;42.656;23.232;2023-02-04T05:04:18;93379.09;;;2.37;72.02
61345;BME280;47216;42.656;23.232;2023-02-04T05:06:45;93374.03;;;2.24;73.53
61345;BME280;47216;42.656;23.232;2023-02-04T05:09:12;93377.69;;;2.09;75.14
61345;BME280;47216;42.656;23.232;2023-02-04T05:11:39;93381.66;;;2.05;75.61
61345;BME280;47216;42.656;23.232;2023-02-04T05:14:05;93365.16;;;1.88;76.73
61345;BME280;47216;42.656;23.232;2023-02-04T05:16:34;93365.19;;;1.81;77.69
61345;BME280;47216;42.656;23.232;2023-02-04T05:19:00;93389.72;;;1.71;78.63
61345;BME280;47216;42.656;23.232;2023-02-04T05:21:27;93397.25;;;1.65;79.67
61345;BME280;47216;42.656;23.232;2023-02-04T05:23:54;93393.72;;;1.66;80.07
61345;BME280;47216;42.656;23.232;2023-02-04T05:26:21;93398.06;;;1.59;81.01
61345;BME280;47216;42.656;23.232;2023-02-04T05:28:47;93400.06;;;1.57;81.37
61345;BME280;47216;42.656;23.232;2023-02-04T05:31:14;93409.75;;;1.55;81.33
61345;BME280;47216;42.656;23.232;2023-02-04T05:33:42;93412.69;;;1.59;81.15
61345;BME280;47216;42.656;23.232;2023-02-04T05:36:09;93406.78;;;1.58;81.10
61345;BME280;47216;42.656;23.232;2023-02-04T05:38:35;93434.44;;;1.56;79.70
61345;BME280;47216;42.656;23.232;2023-02-04T05:41:02;93435.81;;;1.59;80.16
61345;BME280;47216;42.656;23.232;2023-02-04T05:43:29;93440.34;;;1.63;79.51
61345;BME280;47216;42.656;23.232;2023-02-04T05:45:55;93462.88;;;1.61;79.15
61345;BME280;47216;42.656;23.232;2023-02-04T05:48:23;93459.34;;;1.62;79.17
61345;BME280;47216;42.656;23.232;2023-02-04T05:50:51;93475.94;;;1.66;79.07
61345;BME280;47216;42.656;23.232;2023-02-04T05:53:18;93480.66;;;1.70;78.97
61345;BME280;47216;42.656;23.232;2023-02-04T05:55:44;93467.25;;;1.61;78.99
61345;BME280;47216;42.656;23.232;2023-02-04T05:58:11;93447.47;;;1.61;79.14
61345;BME280;47216;42.656;23.232;2023-02-04T06:00:38;93462.88;;;1.61;79.26
61345;BME280;47216;42.656;23.232;2023-02-04T06:03:04;93454.59;;;1.59;79.59
61345;BME280;47216;42.656;23.232;2023-02-04T06:05:31;93449.50;;;1.53;79.90
61345;BME280;47216;42.656;23.232;2023-02-04T06:07:59;93431.53;;;1.39;80.53
61345;BME280;47216;42.656;23.232;2023-02-04T06:10:26;93424.63;;;1.33;81.29
61345;BME280;47216;42.656;23.232;2023-02-04T06:12:53;93424.63;;;1.33;81.45
61345;BME280;47216;42.656;23.232;2023-02-04T06:15:19;93427.00;;;1.35;80.34
61345;BME280;47216;42.656;23.232;2023-02-04T06:17:46;93446.72;;;1.41;79.89
61345;BME280;47216;42.656;23.232;2023-02-04T06:20:13;93433.88;;;1.47;80.03
61345;BME280;47216;42.656;23.232;2023-02-04T06:22:39;93443.16;;;1.55;79.26
61345;BME280;47216;42.656;23.232;2023-02-04T06:25:08;93457.38;;;1.64;78.67
61345;BME280;47216;42.656;23.232;2023-02-04T06:27:34;93453.19;;;1.63;78.96
61345;BME280;47216;42.656;23.232;2023-02-04T06:30:01;93434.25;;;1.64;78.48
61345;BME280;47216;42.656;23.232;2023-02-04T06:32:28;93460.31;;;1.61;78.36
61345;BME280;47216;42.656;23.232;2023-02-04T06:34:55;93446.88;;;1.66;76.51
61345;BME280;47216;42.656;23.232;2023-02-04T06:37:21;93447.03;;;1.78;75.73
61345;BME280;47216;42.656;23.232;2023-02-04T06:39:48;93450.94;;;1.87;75.49
61345;BME280;47216;42.656;23.232;2023-02-04T06:42:17;93456.03;;;2.00;74.62
61345;BME280;47216;42.656;23.232;2023-02-04T06:44:44;93460.38;;;2.06;74.61
61345;BME280;47216;42.656;23.232;2023-02-04T06:47:10;93454.66;;;2.04;74.34
61345;BME280;47216;42.656;23.232;2023-02-04T06:49:39;93457.97;;;2.12;74.25
61345;BME280;47216;42.656;23.232;2023-02-04T06:52:05;93464.31;;;2.16;74.15
61345;BME280;47216;42.656;23.232;2023-02-04T06:54:32;93464.31;;;2.16;73.51
61345;BME280;47216;42.656;23.232;2023-02-04T06:56:59;93454.00;;;2.16;72.72
61345;BME280;47216;42.656;23.232;2023-02-04T06:59:32;93456.78;;;2.14;73.47
61345;BME280;47216;42.656;23.232;2023-02-04T07:01:58;93451.22;;;2.17;73.60
61345;BME280;47216;42.656;23.232;2023-02-04T07:04:25;93430.22;;;2.27;72.46
61345;BME280;47216;42.656;23.232;2023-02-04T07:06:52;93432.19;;;2.31;72.39
61345;BME280;47216;42.656;23.232;2023-02-04T07:09:19;93437.84;;;2.40;71.68
61345;BME280;47216;42.656;23.232;2023-02-04T07:11:45;93445.94;;;2.44;70.79
61345;BME280;47216;42.656;23.232;2023-02-04T07:14:12;93437.59;;;2.48;70.78
61345;BME280;47216;42.656;23.232;2023-02-04T07:16:40;93444.28;;;2.56;70.67
61345;BME280;47216;42.656;23.232;2023-02-04T07:19:07;93449.66;;;2.55;70.80
61345;BME280;47216;42.656;23.232;2023-02-04T07:21:34;93438.63;;;2.47;70.90
61345;BME280;47216;42.656;23.232;2023-02-04T07:24:01;93426.84;;;2.58;70.85
61345;BME280;47216;42.656;23.232;2023-02-04T07:26:27;93439.94;;;2.57;70.50
61345;BME280;47216;42.656;23.232;2023-02-04T07:28:54;93441.09;;;2.61;69.47
61345;BME280;47216;42.656;23.232;2023-02-04T07:31:21;93435.13;;;2.67;69.69
61345;BME280;47216;42.656;23.232;2023-02-04T07:33:49;93445.16;;;2.75;69.43
61345;BME280;47216;42.656;23.232;2023-02-04T07:36:16;93446.00;;;2.69;68.71
61345;BME280;47216;42.656;23.232;2023-02-04T07:38:43;93436.28;;;2.71;69.07
61345;BME280;47216;42.656;23.232;2023-02-04T07:41:09;93419.56;;;2.80;69.43
61345;BME280;47216;42.656;23.232;2023-02-04T07:43:36;93433.97;;;2.88;68.17
61345;BME280;47216;42.656;23.232;2023-02-04T07:46:03;93424.94;;;3.04;67.32
61345;BME280;47216;42.656;23.232;2023-02-04T07:48:30;93430.81;;;3.11;66.53
61345;BME280;47216;42.656;23.232;2023-02-04T07:50:58;93427.81;;;3.14;66.69
61345;BME280;47216;42.656;23.232;2023-02-04T07:53:25;93423.81;;;3.18;66.52
61345;BME280;47216;42.656;23.232;2023-02-04T07:55:51;93413.88;;;3.22;66.35
61345;BME280;47216;42.656;23.232;2023-02-04T07:58:18;93411.59;;;3.32;66.19
61345;BME280;47216;42.656;23.232;2023-02-04T08:00:44;93427.63;;;3.34;66.04
61345;BME280;47216;42.656;23.232;2023-02-04T08:03:11;93428.28;;;3.29;66.16
61345;BME280;47216;42.656;23.232;2023-02-04T08:05:38;93419.97;;;3.27;65.86
61345;BME280;47216;42.656;23.232;2023-02-04T08:08:06;93423.97;;;3.23;66.86
61345;BME280;47216;42.656;23.232;2023-02-04T08:10:33;93424.69;;;3.30;66.15
61345;BME280;47216;42.656;23.232;2023-02-04T08:12:59;93417.75;;;3.31;66.08
61345;BME280;47216;42.656;23.232;2023-02-04T08:15:26;93419.31;;;3.32;66.02
61345;BME280;47216;42.656;23.232;2023-02-04T08:17:53;93426.38;;;3.18;65.80
61345;BME280;47216;42.656;23.232;2023-02-04T08:20:20;93415.66;;;3.21;65.79
61345;BME280;47216;42.656;23.232;2023-02-04T08:22:46;93411.31;;;3.22;66.39
61345;BME280;47216;42.656;23.232;2023-02-04T08:25:15;93411.00;;;3.30;67.44
61345;BME280;47216;42.656;23.232;2023-02-04T08:27:41;93429.69;;;3.25;66.87
61345;BME280;47216;42.656;23.232;2023-02-04T08:30:08;93417.34;;;3.09;67.88
61345;BME280;47216;42.656;23.232;2023-02-04T08:32:35;93421.78;;;3.02;68.87
61345;BME280;47216;42.656;23.232;2023-02-04T08:35:03;93407.59;;;2.92;69.60
61345;BME280;47216;42.656;23.232;2023-02-04T08:37:30;93417.88;;;2.92;70.47
61345;BME280;47216;42.656;23.232;2023-02-04T08:39:57;93407.69;;;2.79;71.07
61345;BME280;47216;42.656;23.232;2023-02-04T08:42:25;93399.34;;;2.84;72.27
61345;BME280;47216;42.656;23.232;2023-02-04T08:44:52;93414.28;;;2.75;72.61
61345;BME280;47216;42.656;23.232;2023-02-04T08:47:19;93411.72;;;2.75;73.02
61345;BME280;47216;42.656;23.232;2023-02-04T08:49:45;93406.16;;;2.71;73.15
61345;BME280;47216;42.656;23.232;2023-02-04T08:52:12;93402.97;;;2.76;73.40
61345;BME280;47216;42.656;23.232;2023-02-04T08:54:39;93403.00;;;2.69;73.71
61345;BME280;47216;42.656;23.232;2023-02-04T08:57:05;93403.91;;;2.57;74.14
61345;BME280;47216;42.656;23.232;2023-02-04T08:59:33;93407.56;;;2.42;75.56
61345;BME280;47216;42.656;23.232;2023-02-04T09:02:00;93396.53;;;2.35;76.52
61345;BME280;47216;42.656;23.232;2023-02-04T09:04:27;93397.09;;;2.37;76.05
61345;BME280;47216;42.656;23.232;2023-02-04T09:06:54;93399.25;;;2.40;75.96
61345;BME280;47216;42.656;23.232;2023-02-04T09:09:20;93400.50;;;2.31;76.30
61345;BME280;47216;42.656;23.232;2023-02-04T09:11:47;93410.63;;;2.26;77.57
61345;BME280;47216;42.656;23.232;2023-02-04T09:14:14;93395.78;;;2.28;75.24
61345;BME280;47216;42.656;23.232;2023-02-04T09:16:42;93408.56;;;2.41;75.60
61345;BME280;47216;42.656;23.232;2023-02-04T09:19:09;93388.47;;;2.57;75.14
61345;BME280;47216;42.656;23.232;2023-02-04T09:21:37;93398.50;;;2.65;74.80
61345;BME280;47216;42.656;23.232;2023-02-04T09:24:03;93397.09;;;2.69;72.96
61345;BME280;47216;42.656;23.232;2023-02-04T09:26:30;93389.16;;;2.70;74.35
61345;BME280;47216;42.656;23.232;2023-02-04T09:28:57;93401.84;;;2.65;74.19
61345;BME280;47216;42.656;23.232;2023-02-04T09:31:24;93405.63;;;2.63;75.06
61345;BME280;47216;42.656;23.232;2023-02-04T09:33:52;93398.34;;;2.60;76.15
61345;BME280;47216;42.656;23.232;2023-02-04T09:36:20;93394.75;;;2.61;76.34
61345;BME280;47216;42.656;23.232;2023-02-04T09:38:46;93389.03;;;2.59;77.04
61345;BME280;47216;42.656;23.232;2023-02-04T09:41:13;93411.44;;;2.51;76.78
61345;BME280;47216;42.656;23.232;2023-02-04T09:43:41;93399.25;;;2.40;78.12
61345;BME280;47216;42.656;23.232;2023-02-04T09:46:10;93391.19;;;2.37;78.41
61345;BME280;47216;42.656;23.232;2023-02-04T09:48:43;93387.91;;;2.23;79.27
61345;BME280;47216;42.656;23.232;2023-02-04T09:51:11;93382.47;;;2.06;80.42
61345;BME280;47216;42.656;23.232;2023-02-04T09:53:40;93372.56;;;2.03;81.08
61345;BME280;47216;42.656;23.232;2023-02-04T09:56:08;93376.75;;;1.97;81.52
61345;BME280;47216;42.656;23.232;2023-02-04T09:58:34;93364.34;;;1.94;82.07
61345;BME280;47216;42.656;23.232;2023-02-04T10:01:05;93351.28;;;1.89;81.99
61345;BME280;47216;42.656;23.232;2023-02-04T10:03:38;93354.28;;;1.86;81.75
61345;BME280;47216;42.656;23.232;2023-02-04T10:06:11;93357.44;;;1.88;81.86
61345;BME280;47216;42.656;23.232;2023-02-04T10:08:41;93353.84;;;1.89;81.53
61345;BME280;47216;42.656;23.232;2023-02-04T10:11:08;93358.03;;;1.90;81.69
61345;BME280;47216;42.656;23.232;2023-02-04T10:13:35;93355.66;;;1.88;82.48
61345;BME280;47216;42.656;23.232;2023-02-04T10:16:03;93363.16;;;1.90;82.97
61345;BME280;47216;42.656;23.232;2023-02-04T10:18:34;93368.50;;;1.88;82.36
61345;BME280;47216;42.656;23.232;2023-02-04T10:21:07;93349.72;;;1.88;83.13
61345;BME280;47216;42.656;23.232;2023-02-04T10:23:39;93349.72;;;1.88;83.05
61345;BME280;47216;42.656;23.232;2023-02-04T10:26:08;93341.81;;;1.89;83.10
61345;BME280;47216;42.656;23.232;2023-02-04T10:28:35;93348.91;;;1.94;82.83
61345;BME280;47216;42.656;23.232;2023-02-04T10:31:04;93360.44;;;1.85;82.18
61345;BME280;47216;42.656;23.232;2023-02-04T10:33:32;93348.19;;;1.80;83.21
61345;BME280;47216;42.656;23.232;2023-02-04T10:36:02;93352.50;;;1.86;83.27
61345;BME280;47216;42.656;23.232;2023-02-04T10:38:30;93353.34;;;1.74;83.65
61345;BME280;47216;42.656;23.232;2023-02-04T10:41:01;93347.03;;;1.70;84.45
61345;BME280;47216;42.656;23.232;2023-02-04T10:43:28;93348.03;;;1.68;84.67
61345;BME280;47216;42.656;23.232;2023-02-04T10:45:55;93341.91;;;1.70;84.85
61345;BME280;47216;42.656;23.232;2023-02-04T10:48:23;93335.00;;;1.63;84.65
61345;BME280;47216;42.656;23.232;2023-02-04T10:50:50;93337.75;;;1.68;84.90
61345;BME280;47216;42.656;23.232;2023-02-04T10:53:18;93337.56;;;1.63;84.69
61345;BME280;47216;42.656;23.232;2023-02-04T10:56:04;93338.75;;;1.67;85.39
61345;BME280;47216;42.656;23.232;2023-02-04T10:58:32;93319.59;;;1.63;85.07
61345;BME280;47216;42.656;23.232;2023-02-04T11:00:58;93316.03;;;1.64;85.12
61345;BME280;47216;42.656;23.232;2023-02-04T11:03:26;93309.13;;;1.65;85.12
61345;BME280;47216;42.656;23.232;2023-02-04T11:05:55;93319.75;;;1.68;84.97
61345;BME280;47216;42.656;23.232;2023-02-04T11:08:23;93315.78;;;1.73;84.44
61345;BME280;47216;42.656;23.232;2023-02-04T11:10:50;93310.81;;;1.78;85.50
61345;BME280;47216;42.656;23.232;2023-02-04T11:13:22;93306.91;;;1.68;84.31
61345;BME280;47216;42.656;23.232;2023-02-04T11:15:49;93301.69;;;1.82;84.79
61345;BME280;47216;42.656;23.232;2023-02-04T11:18:25;93299.97;;;1.76;84.73
61345;BME280;47216;42.656;23.232;2023-02-04T11:20:54;93298.38;;;1.75;85.38
61345;BME280;47216;42.656;23.232;2023-02-04T11:23:28;93303.31;;;1.76;85.68
61345;BME280;47216;42.656;23.232;2023-02-04T11:28:54;93285.72;;;1.73;84.96
61345;BME280;47216;42.656;23.232;2023-02-04T11:31:26;93304.31;;;1.75;85.92
61345;BME280;47216;42.656;23.232;2023-02-04T11:34:02;93295.22;;;1.73;86.05
61345;BME280;47216;42.656;23.232;2023-02-04T11:36:33;93299.91;;;1.82;86.25
61345;BME280;47216;42.656;23.232;2023-02-04T11:39:05;93306.22;;;1.86;84.70
61345;BME280;47216;42.656;23.232;2023-02-04T11:41:32;93293.13;;;1.95;85.29
61345;BME280;47216;42.656;23.232;2023-02-04T11:44:00;93295.66;;;2.01;85.35
61345;BME280;47216;42.656;23.232;2023-02-04T11:46:27;93309.91;;;1.97;85.51
61345;BME280;47216;42.656;23.232;2023-02-04T11:48:54;93301.78;;;2.00;85.29
61345;BME280;47216;42.656;23.232;2023-02-04T11:51:23;93308.84;;;2.12;85.03
61345;BME280;47216;42.656;23.232;2023-02-04T11:53:52;93304.47;;;2.12;84.81
61345;BME280;47216;42.656;23.232;2023-02-04T11:56:19;93301.53;;;2.08;84.68
61345;BME280;47216;42.656;23.232;2023-02-04T11:58:46;93306.84;;;2.14;84.59
61345;BME280;47216;42.656;23.232;2023-02-04T12:01:18;93304.00;;;2.22;84.52
61345;BME280;47216;42.656;23.232;2023-02-04T12:03:45;93299.88;;;2.21;83.90
61345;BME280;47216;42.656;23.232;2023-02-04T12:06:19;93304.75;;;2.29;84.46
61345;BME280;47216;42.656;23.232;2023-02-04T12:08:46;93304.75;;;2.29;83.37
61345;BME280;47216;42.656;23.232;2023-02-04T12:11:23;93298.38;;;2.38;83.45
61345;BME280;47216;42.656;23.232;2023-02-04T12:13:52;93298.75;;;2.35;84.14
61345;BME280;47216;42.656;23.232;2023-02-04T12:16:20;93297.19;;;2.34;84.09
61345;BME280;47216;42.656;23.232;2023-02-04T12:18:47;93293.03;;;2.33;84.31
61345;BME280;47216;42.656;23.232;2023-02-04T12:21:14;93295.94;;;2.43;83.95
61345;BME280;47216;42.656;23.232;2023-02-04T12:23:41;93294.00;;;2.39;83.40
61345;BME280;47216;42.656;23.232;2023-02-04T12:26:08;93298.41;;;2.31;83.27
61345;BME280;47216;42.656;23.232;2023-02-04T12:28:34;93290.06;;;2.36;83.90
61345;BME280;47216;42.656;23.232;2023-02-04T12:31:01;93288.41;;;2.42;83.82
61345;BME280;47216;42.656;23.232;2023-02-04T12:33:29;93279.72;;;2.43;82.91
61345;BME280;47216;42.656;23.232;2023-02-04T12:35:56;93290.78;;;2.43;82.85
61345;BME280;47216;42.656;23.232;2023-02-04T12:38:23;93279.72;;;2.43;82.90
61345;BME280;47216;42.656;23.232;2023-02-04T12:40:51;93288.81;;;2.45;82.85
61345;BME280;47216;42.656;23.232;2023-02-04T12:43:18;93291.94;;;2.47;82.91
61345;BME280;47216;42.656;23.232;2023-02-04T12:45:45;93303.81;;;2.48;82.03
61345;BME280;47216;42.656;23.232;2023-02-04T12:48:13;93300.41;;;2.55;81.18
61345;BME280;47216;42.656;23.232;2023-02-04T12:50:41;93288.66;;;2.59;80.21
61345;BME280;47216;42.656;23.232;2023-02-04T12:53:08;93288.84;;;2.64;81.89
61345;BME280;47216;42.656;23.232;2023-02-04T12:55:35;93299.84;;;2.71;79.05
61345;BME280;47216;42.656;23.232;2023-02-04T12:58:02;93300.50;;;2.66;78.49
61345;BME280;47216;42.656;23.232;2023-02-04T13:00:28;93304.63;;;2.67;79.57
61345;BME280;47216;42.656;23.232;2023-02-04T13:02:55;93293.84;;;2.77;78.62
61345;BME280;47216;42.656;23.232;2023-02-04T13:05:23;93296.00;;;2.80;79.40